createdAt,value
2019-02-10T00:02:07.619Z,3.10
2019-02-10T00:04:33.429Z,3.40
2019-02-10T00:06:59.284Z,3.47
2019-02-10T00:09:25.131Z,3.60
2019-02-10T00:11:50.965Z,3.07
2019-02-10T00:14:16.904Z,3.23
2019-02-10T00:16:42.768Z,2.97
2019-02-10T00:19:08.692Z,3.30
2019-02-10T00:21:34.538Z,3.40
2019-02-10T00:24:00.383Z,3.20
2019-02-10T00:26:26.280Z,3.20
2019-02-10T00:28:52.099Z,3.20
2019-02-10T00:31:18.048Z,3.30
2019-02-10T00:33:43.889Z,3.23
2019-02-10T00:36:09.755Z,3.33
2019-02-10T00:38:35.595Z,3.20
2019-02-10T00:41:01.537Z,2.90
2019-02-10T00:43:27.398Z,3.10
2019-02-10T00:45:53.234Z,3.03
2019-02-10T00:48:19.101Z,2.83
2019-02-10T00:50:44.919Z,3.00
2019-02-10T00:53:11.067Z,3.10
2019-02-10T00:55:36.939Z,3.20
2019-02-10T00:58:02.984Z,3.20
2019-02-10T01:00:28.795Z,3.00
2019-02-10T01:02:54.779Z,3.10
2019-02-10T01:05:20.621Z,3.20
2019-02-10T01:07:47.154Z,3.10
2019-02-10T01:10:13.298Z,2.57
2019-02-10T01:12:39.157Z,2.87
2019-02-10T01:15:06.228Z,2.80
2019-02-10T01:17:32.056Z,3.47
2019-02-10T01:19:58.016Z,2.67
2019-02-10T01:22:23.832Z,3.13
2019-02-10T01:24:49.672Z,2.40
2019-02-10T01:27:15.491Z,2.57
2019-02-10T01:29:41.444Z,2.63
2019-02-10T01:32:07.382Z,2.53
2019-02-10T01:34:33.796Z,2.87
2019-02-10T01:36:59.615Z,2.80
2019-02-10T01:39:25.979Z,2.70
2019-02-10T01:41:51.825Z,3.13
2019-02-10T01:44:18.072Z,2.87
2019-02-10T01:46:43.906Z,3.63
2019-02-10T01:49:09.847Z,3.23
2019-02-10T01:51:35.675Z,2.63
2019-02-10T01:54:01.520Z,2.87
2019-02-10T01:56:27.521Z,2.80
2019-02-10T01:58:53.346Z,3.00
2019-02-10T02:01:19.201Z,3.30
2019-02-10T02:03:45.028Z,2.80
2019-02-10T02:06:10.871Z,2.60
2019-02-10T02:08:36.709Z,3.03
2019-02-10T02:11:02.564Z,3.10
2019-02-10T02:13:28.372Z,3.03
2019-02-10T02:15:54.217Z,2.70
2019-02-10T02:18:20.040Z,3.20
2019-02-10T02:20:45.892Z,3.00
2019-02-10T02:23:11.705Z,3.10
2019-02-10T02:25:37.550Z,2.53
2019-02-10T02:28:03.364Z,2.67
2019-02-10T02:30:29.216Z,3.07
2019-02-10T02:32:55.030Z,2.80
2019-02-10T02:35:20.839Z,2.80
2019-02-10T02:37:46.683Z,3.13
2019-02-10T02:40:12.618Z,2.73
2019-02-10T02:42:38.663Z,3.00
2019-02-10T02:45:09.902Z,3.37
2019-02-10T02:47:35.853Z,2.67
2019-02-10T02:50:01.880Z,2.70
2019-02-10T02:52:27.943Z,2.80
2019-02-10T02:54:53.773Z,3.03
2019-02-10T02:57:19.618Z,2.90
2019-02-10T02:59:45.434Z,3.23
2019-02-10T03:02:11.270Z,2.70
2019-02-10T03:04:37.099Z,2.93
2019-02-10T03:07:02.951Z,2.70
2019-02-10T03:09:28.762Z,2.87
2019-02-10T03:11:54.625Z,3.10
2019-02-10T03:14:20.444Z,2.80
2019-02-10T03:16:46.295Z,3.07
2019-02-10T03:19:12.316Z,3.40
2019-02-10T03:21:38.148Z,3.50
2019-02-10T03:24:04.090Z,3.73
2019-02-10T03:26:29.914Z,3.30
2019-02-10T03:28:55.750Z,3.73
2019-02-10T03:31:21.578Z,3.00
2019-02-10T03:33:47.414Z,3.80
2019-02-10T03:36:13.223Z,3.00
2019-02-10T03:38:39.060Z,4.43
2019-02-10T03:41:04.881Z,2.87
2019-02-10T03:43:31.028Z,3.40
2019-02-10T03:45:56.853Z,3.43
2019-02-10T03:48:22.711Z,3.00
2019-02-10T03:50:48.548Z,3.27
2019-02-10T03:53:14.378Z,3.13
2019-02-10T03:55:40.322Z,3.33
2019-02-10T03:58:06.293Z,3.00
2019-02-10T04:00:32.204Z,3.23
2019-02-10T04:02:58.041Z,3.10
2019-02-10T04:05:23.890Z,3.17
2019-02-10T04:07:49.708Z,3.40
2019-02-10T04:10:15.559Z,3.33
2019-02-10T04:12:41.376Z,3.37
2019-02-10T04:15:07.317Z,3.17
2019-02-10T04:17:33.133Z,3.30
2019-02-10T04:19:59.091Z,2.67
2019-02-10T04:22:24.916Z,3.10
2019-02-10T04:24:50.861Z,4.23
2019-02-10T04:27:16.682Z,3.00
2019-02-10T04:29:42.525Z,3.00
2019-02-10T04:32:08.352Z,2.60
2019-02-10T04:34:34.172Z,2.90
2019-02-10T04:37:00.013Z,2.40
2019-02-10T04:39:25.829Z,2.43
2019-02-10T04:41:51.666Z,2.40
2019-02-10T04:44:17.486Z,2.47
2019-02-10T04:46:43.331Z,2.70
2019-02-10T04:49:09.148Z,2.40
2019-02-10T04:51:34.988Z,2.33
2019-02-10T04:54:00.822Z,2.10
2019-02-10T04:56:26.689Z,2.40
2019-02-10T04:58:52.507Z,2.30
2019-02-10T05:01:18.847Z,2.80
2019-02-10T05:03:44.755Z,2.23
2019-02-10T05:06:10.615Z,2.30
2019-02-10T05:08:36.548Z,2.40
2019-02-10T05:11:02.502Z,2.60
2019-02-10T05:13:28.324Z,2.33
2019-02-10T05:15:54.133Z,2.33
2019-02-10T05:18:19.980Z,2.30
2019-02-10T05:20:45.822Z,1.83
2019-02-10T05:23:11.676Z,1.97
2019-02-10T05:25:37.498Z,2.10
2019-02-10T05:28:03.420Z,1.70
2019-02-10T05:30:29.176Z,2.30
2019-02-10T05:32:55.030Z,2.07
2019-02-10T05:35:20.853Z,1.97
2019-02-10T05:37:46.696Z,1.93
2019-02-10T05:40:12.522Z,2.50
2019-02-10T05:42:38.381Z,1.83
2019-02-10T05:45:06.193Z,2.20
2019-02-10T05:47:32.068Z,2.50
2019-02-10T05:49:57.892Z,1.80
2019-02-10T05:52:23.741Z,2.10
2019-02-10T05:54:49.620Z,1.87
2019-02-10T05:57:15.441Z,1.93
2019-02-10T05:59:41.287Z,1.93
2019-02-10T06:02:14.997Z,2.00
2019-02-10T06:04:42.568Z,1.90
2019-02-10T06:07:13.965Z,1.77
2019-02-10T06:09:39.924Z,1.77
2019-02-10T06:12:05.738Z,1.70
2019-02-10T06:14:31.572Z,1.90
2019-02-10T06:16:57.383Z,1.83
2019-02-10T06:19:23.835Z,1.70
2019-02-10T06:21:49.649Z,1.97
2019-02-10T06:24:15.490Z,2.40
2019-02-10T06:26:41.304Z,2.00
2019-02-10T06:29:07.114Z,1.90
2019-02-10T06:31:32.962Z,2.00
2019-02-10T06:33:58.782Z,1.70
2019-02-10T06:36:24.608Z,1.80
2019-02-10T06:38:50.551Z,1.97
2019-02-10T06:41:16.393Z,1.70
2019-02-10T06:43:42.219Z,2.10
2019-02-10T06:46:08.847Z,2.30
2019-02-10T06:48:34.657Z,2.00
2019-02-10T06:51:00.508Z,1.90
2019-02-10T06:53:26.344Z,1.70
2019-02-10T06:55:52.223Z,1.87
2019-02-10T06:58:18.016Z,2.23
2019-02-10T07:00:45.768Z,2.00
2019-02-10T07:03:40.445Z,2.00
2019-02-10T07:06:07.182Z,2.13
2019-02-10T07:08:33.011Z,1.90
2019-02-10T07:10:58.852Z,2.07
2019-02-10T07:13:33.831Z,1.83
2019-02-10T07:16:26.552Z,1.50
2019-02-10T07:19:29.722Z,1.70
2019-02-10T07:21:55.577Z,1.33
2019-02-10T07:24:43.314Z,1.90
2019-02-10T07:27:18.503Z,1.20
2019-02-10T07:29:54.191Z,1.40
2019-02-10T07:32:23.352Z,1.20
2019-02-10T07:35:23.263Z,1.20
2019-02-10T07:37:55.900Z,1.00
2019-02-10T07:40:58.637Z,1.10
2019-02-10T07:43:37.592Z,1.00
2019-02-10T07:46:22.071Z,1.00
2019-02-10T07:48:57.728Z,1.00
2019-02-10T07:51:27.367Z,1.07
2019-02-10T07:53:57.023Z,1.10
2019-02-10T07:56:41.686Z,1.07
2019-02-10T07:59:44.995Z,1.13
2019-02-10T08:02:40.708Z,1.20
2019-02-10T08:05:12.996Z,1.00
2019-02-10T08:07:59.545Z,1.07
2019-02-10T08:10:29.239Z,1.03
2019-02-10T08:13:07.723Z,0.90
2019-02-10T08:15:46.469Z,0.97
2019-02-10T08:18:19.127Z,1.13
2019-02-10T08:20:51.789Z,1.00
2019-02-10T08:23:42.155Z,1.20
2019-02-10T08:26:20.751Z,1.20
2019-02-10T08:29:17.334Z,1.17
2019-02-10T08:32:15.818Z,1.20
2019-02-10T08:35:05.432Z,1.00
2019-02-10T08:37:38.058Z,1.00
2019-02-10T08:40:16.533Z,1.30
2019-02-10T08:43:04.478Z,1.20
2019-02-10T08:45:36.892Z,0.90
2019-02-10T08:48:18.626Z,1.00
2019-02-10T08:51:09.701Z,1.20
2019-02-10T08:53:35.652Z,1.00
2019-02-10T08:56:01.517Z,1.00
2019-02-10T08:58:27.373Z,1.27
2019-02-10T09:00:53.236Z,1.40
2019-02-10T09:03:19.855Z,1.20
2019-02-10T09:05:46.157Z,1.10
2019-02-10T09:08:11.990Z,1.00
2019-02-10T09:10:37.883Z,1.17
2019-02-10T09:13:03.737Z,1.30
2019-02-10T09:15:29.697Z,1.47
2019-02-10T09:17:55.812Z,1.17
2019-02-10T09:20:21.752Z,1.50
2019-02-10T09:22:47.575Z,1.40
2019-02-10T09:25:13.457Z,1.40
2019-02-10T09:27:39.272Z,1.20
2019-02-10T09:30:08.940Z,1.10
2019-02-10T09:32:34.821Z,1.30
2019-02-10T09:35:00.639Z,1.10
2019-02-10T09:37:26.482Z,1.37
2019-02-10T09:39:52.349Z,1.20
2019-02-10T09:42:18.272Z,1.30
2019-02-10T09:44:44.131Z,1.27
2019-02-10T09:47:09.968Z,1.33
2019-02-10T09:49:35.861Z,1.40
2019-02-10T09:52:01.679Z,1.40
2019-02-10T09:54:27.512Z,1.80
2019-02-10T09:56:53.372Z,1.40
2019-02-10T09:59:19.307Z,1.60
2019-02-10T10:01:45.139Z,1.70
2019-02-10T10:04:10.994Z,1.77
2019-02-10T10:06:37.332Z,1.50
2019-02-10T10:09:04.699Z,1.50
2019-02-10T10:11:30.511Z,1.60
2019-02-10T10:13:56.375Z,1.47
2019-02-10T10:16:22.428Z,1.07
2019-02-10T10:18:48.288Z,1.63
2019-02-10T10:21:14.171Z,1.40
2019-02-10T10:23:40.007Z,1.40
2019-02-10T10:26:08.039Z,1.40
2019-02-10T10:28:33.915Z,1.30
2019-02-10T10:30:59.755Z,1.50
2019-02-10T10:33:25.779Z,1.57
2019-02-10T10:35:51.627Z,1.30
2019-02-10T10:38:17.849Z,1.30
2019-02-10T10:40:44.184Z,1.40
2019-02-10T10:43:10.037Z,1.60
2019-02-10T10:45:36.001Z,1.93
2019-02-10T10:48:01.818Z,2.93
2019-02-10T10:50:27.931Z,2.00
2019-02-10T10:52:53.859Z,1.70
2019-02-10T10:55:19.799Z,1.57
2019-02-10T10:57:45.624Z,1.50
2019-02-10T11:00:14.625Z,1.50
2019-02-10T11:02:40.451Z,1.40
2019-02-10T11:05:06.433Z,1.10
2019-02-10T11:07:32.384Z,0.93
2019-02-10T11:09:58.255Z,1.20
2019-02-10T11:12:24.092Z,1.10
2019-02-10T11:14:50.186Z,1.00
2019-02-10T11:17:16.007Z,0.90
2019-02-10T11:19:41.896Z,1.00
2019-02-10T11:22:07.759Z,0.90
2019-02-10T11:24:33.642Z,0.80
2019-02-10T11:26:59.458Z,0.83
2019-02-10T11:29:25.312Z,0.90
2019-02-10T11:31:51.228Z,1.00
2019-02-10T11:34:17.039Z,0.90
2019-02-10T11:36:42.912Z,1.20
2019-02-10T11:39:08.859Z,0.70
2019-02-10T11:41:34.728Z,0.90
2019-02-10T11:44:01.299Z,0.80
2019-02-10T11:46:27.835Z,0.90
2019-02-10T11:48:53.676Z,0.83
2019-02-10T11:51:19.680Z,0.97
2019-02-10T11:53:46.800Z,0.83
2019-02-10T11:56:12.945Z,0.93
2019-02-10T11:58:38.788Z,1.07
2019-02-10T12:01:04.865Z,0.97
2019-02-10T12:03:30.719Z,1.10
2019-02-10T12:06:02.535Z,1.03
2019-02-10T12:08:35.392Z,0.83
2019-02-10T12:10:56.578Z,0.80
2019-02-10T12:13:22.448Z,0.93
2019-02-10T12:15:48.291Z,0.80
2019-02-10T12:18:14.156Z,1.00
2019-02-10T12:20:39.962Z,1.00
2019-02-10T12:23:06.034Z,0.90
2019-02-10T12:25:32.085Z,1.10
2019-02-10T12:27:58.249Z,1.30
2019-02-10T12:30:24.761Z,1.00
2019-02-10T12:32:50.733Z,1.20
2019-02-10T12:35:16.592Z,1.10
2019-02-10T12:37:42.470Z,1.40
2019-02-10T12:40:10.161Z,1.07
2019-02-10T12:42:36.027Z,1.40
2019-02-10T12:45:03.231Z,1.50
2019-02-10T12:47:29.070Z,1.40
2019-02-10T12:49:55.453Z,1.37
2019-02-10T12:52:21.284Z,1.50
2019-02-10T12:54:47.362Z,1.30
2019-02-10T12:57:13.324Z,1.17
2019-02-10T12:59:39.293Z,1.37
2019-02-10T13:02:05.144Z,1.17
2019-02-10T13:04:30.998Z,0.90
2019-02-10T13:06:56.824Z,1.00
2019-02-10T13:09:23.832Z,0.90
2019-02-10T13:11:49.668Z,1.20
2019-02-10T13:14:15.537Z,1.07
2019-02-10T13:16:41.396Z,1.30
2019-02-10T13:19:07.339Z,1.07
2019-02-10T13:21:33.732Z,1.03
2019-02-10T13:23:59.560Z,1.10
2019-02-10T13:26:25.422Z,1.10
2019-02-10T13:28:51.267Z,0.90
2019-02-10T13:31:17.206Z,0.83
2019-02-10T13:33:43.095Z,0.80
2019-02-10T13:36:08.959Z,4.43
2019-02-10T13:38:34.810Z,1.53
2019-02-10T13:41:00.746Z,1.80
2019-02-10T13:43:33.409Z,1.00
2019-02-10T13:45:54.472Z,1.23
2019-02-10T13:48:20.360Z,1.07
2019-02-10T13:50:46.251Z,1.60
2019-02-10T13:53:12.208Z,1.30
2019-02-10T13:55:38.168Z,2.20
2019-02-10T13:58:04.125Z,2.80
2019-02-10T14:00:30.119Z,1.77
2019-02-10T14:02:56.005Z,1.57
2019-02-10T14:05:21.836Z,2.67
2019-02-10T14:07:47.803Z,1.40
2019-02-10T14:10:25.213Z,1.50
2019-02-10T14:12:45.696Z,2.03
2019-02-10T14:15:14.175Z,1.00
2019-02-10T14:17:40.030Z,1.80
2019-02-10T14:20:09.243Z,0.90
2019-02-10T14:22:35.243Z,3.53
2019-02-10T14:25:01.101Z,1.20
2019-02-10T14:27:26.981Z,1.67
2019-02-10T14:29:53.601Z,2.23
2019-02-10T14:32:19.422Z,1.30
2019-02-10T14:34:45.297Z,1.80
2019-02-10T14:37:11.273Z,2.70
2019-02-10T14:39:37.170Z,2.20
2019-02-10T14:42:03.633Z,1.93
2019-02-10T14:44:29.796Z,1.60
2019-02-10T14:46:55.710Z,2.63
2019-02-10T14:49:22.816Z,2.00
2019-02-10T14:51:48.766Z,2.00
2019-02-10T14:54:14.702Z,1.40
2019-02-10T14:56:40.626Z,1.70
2019-02-10T14:59:06.543Z,2.30
2019-02-10T15:01:33.065Z,2.30
2019-02-10T15:03:58.954Z,1.73
2019-02-10T15:06:24.891Z,1.80
2019-02-10T15:08:50.867Z,2.10
2019-02-10T15:11:16.749Z,1.90
2019-02-10T15:13:42.573Z,1.20
2019-02-10T15:16:08.561Z,1.33
2019-02-10T15:18:34.513Z,2.33
2019-02-10T15:21:00.509Z,1.90
2019-02-10T15:23:26.466Z,1.90
2019-02-10T15:25:52.910Z,1.60
2019-02-10T15:28:19.226Z,1.90
2019-02-10T15:30:45.335Z,1.63
2019-02-10T15:33:12.251Z,2.47
2019-02-10T15:35:38.161Z,2.40
2019-02-10T15:38:04.029Z,1.50
2019-02-10T15:40:30.003Z,2.33
2019-02-10T15:42:55.863Z,1.50
2019-02-10T15:45:22.078Z,1.40
2019-02-10T15:47:47.939Z,1.00
2019-02-10T15:50:13.850Z,0.97
2019-02-10T15:52:40.086Z,1.00
2019-02-10T15:55:09.811Z,0.90
2019-02-10T15:57:36.162Z,1.10
2019-02-10T16:00:04.839Z,1.23
2019-02-10T16:02:32.147Z,1.60
2019-02-10T16:04:58.004Z,1.40
2019-02-10T16:07:23.866Z,2.17
2019-02-10T16:09:50.100Z,2.00
2019-02-10T16:12:15.966Z,1.80
2019-02-10T16:14:44.555Z,2.47
2019-02-10T16:17:10.437Z,1.67
2019-02-10T16:19:39.401Z,1.17
2019-02-10T16:22:07.952Z,3.07
2019-02-10T16:24:36.226Z,2.40
2019-02-10T16:27:04.966Z,2.57
2019-02-10T16:29:33.253Z,1.63
2019-02-10T16:32:02.184Z,1.50
2019-02-10T16:34:30.532Z,1.23
2019-02-10T16:36:59.218Z,2.90
2019-02-10T16:39:27.618Z,3.47
2019-02-10T16:41:56.499Z,1.50
2019-02-10T16:44:26.780Z,1.30
2019-02-10T16:46:59.490Z,1.37
2019-02-10T16:49:28.060Z,1.50
2019-02-10T16:51:57.134Z,1.83
2019-02-10T16:54:25.178Z,1.70
2019-02-10T16:56:51.049Z,1.20
2019-02-10T16:59:17.210Z,1.63
2019-02-10T17:01:43.107Z,1.60
2019-02-10T17:04:09.098Z,1.53
2019-02-10T17:06:34.957Z,1.50
2019-02-10T17:09:00.854Z,1.50
2019-02-10T17:11:26.725Z,1.63
2019-02-10T17:13:52.884Z,1.60
2019-02-10T17:16:21.762Z,1.57
2019-02-10T17:18:50.444Z,2.10
2019-02-10T17:21:20.748Z,1.40
2019-02-10T17:23:49.412Z,1.83
2019-02-10T17:26:17.906Z,1.70
2019-02-10T17:28:46.444Z,1.90
2019-02-10T17:31:14.754Z,1.40
2019-02-10T17:33:45.013Z,1.80
2019-02-10T17:36:16.379Z,1.80
2019-02-10T17:38:45.743Z,1.63
2019-02-10T17:41:22.694Z,1.77
2019-02-10T17:43:47.343Z,1.47
2019-02-10T17:46:13.332Z,1.90
2019-02-10T17:48:40.412Z,2.30
2019-02-10T17:51:06.430Z,1.70
2019-02-10T17:53:35.319Z,2.03
2019-02-10T17:56:04.257Z,2.20
2019-02-10T17:58:33.117Z,2.07
2019-02-10T18:01:01.976Z,2.20
2019-02-10T18:03:30.248Z,2.37
2019-02-10T18:05:59.419Z,2.70
2019-02-10T18:08:27.514Z,2.50
2019-02-10T18:10:56.537Z,2.93
2019-02-10T18:13:25.553Z,3.43
2019-02-10T18:16:02.276Z,3.33
2019-02-10T18:18:48.476Z,3.47
2019-02-10T18:21:36.792Z,2.90
2019-02-10T18:24:04.587Z,3.10
2019-02-10T18:26:32.486Z,3.33
2019-02-10T18:29:00.267Z,2.73
2019-02-10T18:31:44.973Z,3.33
2019-02-10T18:34:18.690Z,3.47
2019-02-10T18:36:49.370Z,2.73
2019-02-10T18:39:17.167Z,2.80
2019-02-10T18:41:47.779Z,2.90
2019-02-10T18:44:21.297Z,3.57
2019-02-10T18:46:58.309Z,3.60
2019-02-10T18:49:32.689Z,3.20
2019-02-10T18:52:12.361Z,3.37
2019-02-10T18:54:46.146Z,4.30
2019-02-10T18:57:17.210Z,3.97
2019-02-10T18:59:45.490Z,3.70
2019-02-10T19:02:20.466Z,3.93
2019-02-10T19:04:51.207Z,4.03
2019-02-10T19:07:21.885Z,3.87
2019-02-10T19:09:52.480Z,3.27
2019-02-10T19:12:32.739Z,3.30
2019-02-10T19:15:09.472Z,3.27
2019-02-10T19:17:37.399Z,4.20
2019-02-10T19:20:08.967Z,3.70
2019-02-10T19:22:42.911Z,3.20
2019-02-10T19:25:10.784Z,4.20
2019-02-10T19:27:41.185Z,3.50
2019-02-10T19:30:17.531Z,4.20
2019-02-10T19:32:45.381Z,4.00
2019-02-10T19:35:16.185Z,3.83
2019-02-10T19:37:46.703Z,4.93
2019-02-10T19:40:26.845Z,4.43
2019-02-10T19:43:00.470Z,4.37
2019-02-10T19:45:44.793Z,4.00
2019-02-10T19:48:15.791Z,4.53
2019-02-10T19:50:49.678Z,4.57
2019-02-10T19:53:17.473Z,4.50
2019-02-10T19:55:51.540Z,5.10
2019-02-10T19:58:22.750Z,4.33
2019-02-10T20:00:56.761Z,5.27
2019-02-10T20:03:40.995Z,4.70
2019-02-10T20:06:09.146Z,3.40
2019-02-10T20:08:39.668Z,3.40
2019-02-10T20:11:07.866Z,3.90
2019-02-10T20:13:53.915Z,4.10
2019-02-10T20:16:21.811Z,4.13
2019-02-10T20:18:58.460Z,4.43
2019-02-10T20:21:29.049Z,4.10
2019-02-10T20:23:56.915Z,4.77
2019-02-10T20:26:27.695Z,5.17
2019-02-10T20:28:55.473Z,4.20
2019-02-10T20:31:29.790Z,4.87
2019-02-10T20:33:57.571Z,5.13
2019-02-10T20:36:25.499Z,4.60
2019-02-10T20:39:07.996Z,4.93
2019-02-10T20:41:47.991Z,4.80
2019-02-10T20:44:15.754Z,4.73
2019-02-10T20:47:00.043Z,4.93
2019-02-10T20:49:44.281Z,4.17
2019-02-10T20:52:18.072Z,4.30
2019-02-10T20:54:45.826Z,4.73
2019-02-10T20:57:13.672Z,4.77
2019-02-10T20:59:56.684Z,4.40
2019-02-10T21:02:33.878Z,4.50
2019-02-10T21:05:01.634Z,4.90
2019-02-10T21:07:29.441Z,4.50
2019-02-10T21:10:00.558Z,5.00
2019-02-10T21:12:31.312Z,5.23
2019-02-10T21:15:05.514Z,5.57
2019-02-10T21:17:37.137Z,4.90
2019-02-10T21:20:13.820Z,5.40
2019-02-10T21:22:41.733Z,5.63
2019-02-10T21:25:10.091Z,5.70
2019-02-10T21:27:53.651Z,5.63
2019-02-10T21:30:30.215Z,5.63
2019-02-10T21:33:06.755Z,4.60
2019-02-10T21:35:37.268Z,4.90
2019-02-10T21:38:08.173Z,3.40
2019-02-10T21:40:42.032Z,2.87
2019-02-10T21:43:15.516Z,2.90
2019-02-10T21:45:49.317Z,2.20
2019-02-10T21:48:17.118Z,2.80
2019-02-10T21:50:42.984Z,2.90
2019-02-10T21:53:08.799Z,2.97
2019-02-10T21:55:34.663Z,2.40
2019-02-10T21:58:00.568Z,2.30
2019-02-10T22:00:26.440Z,1.80
2019-02-10T22:02:52.295Z,2.13
2019-02-10T22:05:18.395Z,1.90
2019-02-10T22:07:44.232Z,1.50
2019-02-10T22:10:10.894Z,1.73
2019-02-10T22:12:37.225Z,1.57
2019-02-10T22:15:06.125Z,1.67
2019-02-10T22:17:32.055Z,1.90
2019-02-10T22:19:57.917Z,1.87
2019-02-10T22:22:23.776Z,2.10
2019-02-10T22:24:49.641Z,1.50
2019-02-10T22:27:15.523Z,2.20
2019-02-10T22:29:41.355Z,2.10
2019-02-10T22:32:07.341Z,2.30
2019-02-10T22:34:33.274Z,2.53
2019-02-10T22:37:02.663Z,2.43
2019-02-10T22:39:28.700Z,2.70
2019-02-10T22:41:54.556Z,2.73
2019-02-10T22:44:20.398Z,2.10
2019-02-10T22:46:46.235Z,2.13
2019-02-10T22:49:12.101Z,2.37
2019-02-10T22:51:38.093Z,2.07
2019-02-10T22:54:04.025Z,1.80
2019-02-10T22:56:30.007Z,1.83
2019-02-10T22:58:55.881Z,1.90
2019-02-10T23:01:21.816Z,1.90
2019-02-10T23:03:47.683Z,1.60
2019-02-10T23:06:13.623Z,1.93
2019-02-10T23:08:39.575Z,2.07
2019-02-10T23:11:05.535Z,2.13
2019-02-10T23:13:31.521Z,1.87
2019-02-10T23:15:57.350Z,2.30
2019-02-10T23:18:23.437Z,1.93
2019-02-10T23:20:49.256Z,2.20
2019-02-10T23:23:15.135Z,2.23
2019-02-10T23:25:40.959Z,2.27
2019-02-10T23:28:06.837Z,2.20
2019-02-10T23:30:32.660Z,2.40
2019-02-10T23:32:58.500Z,2.17
2019-02-10T23:35:24.471Z,2.33
2019-02-10T23:37:50.315Z,2.40
2019-02-10T23:40:16.142Z,2.50
2019-02-10T23:42:41.955Z,1.83
2019-02-10T23:45:08.215Z,1.70
2019-02-10T23:47:34.034Z,1.70
2019-02-10T23:49:59.877Z,1.60
2019-02-10T23:52:25.723Z,1.70
2019-02-10T23:54:51.576Z,1.70
2019-02-10T23:57:17.427Z,1.90
2019-02-10T23:59:43.289Z,1.80
